Time;durP1;ratioP1;P1;durP2;ratioP2;P2;SDS_P1;SDS_P2;PMS_P1;PMS_P2;Temp;Humidity;BMP_temperature;BMP_pressure;BME280_temperature;BME280_humidity;BME280_pressure;Samples;Min_cycle;Max_cycle;Signal;HPM_P1;HPM_P2
2022/03/20 00:00:14;;;;;;;6.35;3.67;;;4.90;99.90;;;;;;4880557;29;20049;-83
2022/03/20 00:02:41;;;;;;;5.00;3.80;;;4.90;99.90;;;;;;4903000;29;20063;-83
2022/03/20 00:05:07;;;;;;;6.32;3.50;;;4.90;99.90;;;;;;4888985;29;20060;-86
2022/03/20 00:07:34;;;;;;;9.45;4.05;;;4.80;99.90;;;;;;4872968;29;20053;-85
2022/03/20 00:10:05;;;;;;;6.47;4.00;;;4.80;99.90;;;;;;4904287;29;20047;-86
2022/03/20 00:12:31;;;;;;;6.57;4.00;;;4.70;99.90;;;;;;4912101;29;20098;-85
2022/03/20 00:14:56;;;;;;;7.18;4.25;;;4.70;99.90;;;;;;4890430;29;20083;-85
2022/03/20 00:17:22;;;;;;;7.03;3.95;;;4.70;99.90;;;;;;4904715;29;20055;-85
2022/03/20 00:19:48;;;;;;;4.95;3.70;;;4.60;99.90;;;;;;4887208;29;20104;-85
2022/03/20 00:22:15;;;;;;;8.00;3.97;;;4.60;99.90;;;;;;4922749;29;20082;-85
2022/03/20 00:24:43;;;;;;;7.25;4.30;;;5.80;99.90;;;;;;4872342;29;20410;-83
2022/03/20 00:27:10;;;;;;;8.10;4.40;;;4.50;99.90;;;;;;4893739;29;20056;-84
2022/03/20 00:29:36;;;;;;;5.93;4.00;;;4.50;99.90;;;;;;4902101;29;20052;-85
2022/03/20 00:32:03;;;;;;;6.43;3.75;;;4.50;99.90;;;;;;4889765;29;20047;-85
2022/03/20 00:34:29;;;;;;;6.70;3.88;;;4.40;99.90;;;;;;4902721;29;20551;-83
2022/03/20 00:36:55;;;;;;;6.65;4.13;;;4.40;99.90;;;;;;4901153;29;20059;-86
2022/03/20 00:39:20;;;;;;;5.65;3.55;;;4.40;99.90;;;;;;4903363;29;20040;-86
2022/03/20 00:41:46;;;;;;;5.85;3.97;;;5.10;99.90;;;;;;4901548;29;20604;-85
2022/03/20 00:44:12;;;;;;;6.70;4.13;;;4.30;99.90;;;;;;4902629;29;20078;-85
2022/03/20 00:46:38;;;;;;;6.13;4.20;;;4.30;99.90;;;;;;4886661;29;20502;-85
2022/03/20 00:49:05;;;;;;;6.82;4.45;;;4.30;99.90;;;;;;4888035;29;20040;-86
2022/03/20 00:51:32;;;;;;;9.18;4.40;;;4.60;99.90;;;;;;4903050;29;20048;-85
2022/03/20 00:53:58;;;;;;;8.02;4.60;;;5.60;99.90;;;;;;4877580;29;20052;-85
2022/03/20 00:56:23;;;;;;;5.88;4.22;;;4.20;99.90;;;;;;4862239;29;20090;-85
2022/03/20 00:58:49;;;;;;;6.07;4.00;;;4.20;99.90;;;;;;4901298;29;20044;-83
2022/03/20 01:01:15;;;;;;;7.47;4.47;;;4.20;99.90;;;;;;4886354;29;20573;-85
2022/03/20 01:03:42;;;;;;;7.70;4.38;;;4.20;99.90;;;;;;4903470;29;20486;-83
2022/03/20 01:06:09;;;;;;;5.95;3.92;;;4.10;99.90;;;;;;4918451;29;20059;-85
2022/03/20 01:08:35;;;;;;;6.32;4.32;;;4.10;99.90;;;;;;4891449;29;20103;-86
2022/03/20 01:11:03;;;;;;;5.88;4.05;;;4.10;99.90;;;;;;4904030;29;20425;-84
2022/03/20 01:13:29;;;;;;;5.95;4.10;;;4.40;99.90;;;;;;4892845;29;20138;-83
2022/03/20 01:15:55;;;;;;;7.28;4.43;;;4.00;99.90;;;;;;4901981;29;20051;-83
2022/03/20 01:18:24;;;;;;;7.88;4.38;;;4.10;99.90;;;;;;4917159;29;20490;-82
2022/03/20 01:20:51;;;;;;;9.88;4.30;;;5.00;99.90;;;;;;4901801;29;20059;-83
2022/03/20 01:23:17;;;;;;;6.43;4.28;;;3.90;99.90;;;;;;4902975;29;20063;-84
2022/03/20 01:25:43;;;;;;;6.85;4.15;;;4.80;99.90;;;;;;4887249;29;20045;-84
2022/03/20 01:28:09;;;;;;;6.28;4.32;;;3.90;99.90;;;;;;4871078;29;20143;-83
2022/03/20 01:30:34;;;;;;;6.28;4.10;;;5.00;99.90;;;;;;4921700;29;20051;-84
2022/03/20 01:33:01;;;;;;;7.50;4.50;;;3.90;99.90;;;;;;4885685;29;20048;-85
2022/03/20 01:35:27;;;;;;;7.15;4.22;;;3.80;99.90;;;;;;4887505;29;20049;-83
2022/03/20 01:37:53;;;;;;;5.13;4.00;;;4.60;99.90;;;;;;4869724;29;20052;-84
2022/03/20 01:40:18;;;;;;;7.57;4.40;;;5.00;99.90;;;;;;4916563;29;20083;-83
2022/03/20 01:42:44;;;;;;;7.68;4.38;;;3.80;99.90;;;;;;4886185;29;20582;-82
2022/03/20 01:45:15;;;;;;;8.73;4.75;;;3.80;99.90;;;;;;4873081;29;20040;-83
2022/03/20 01:47:40;;;;;;;6.43;4.25;;;3.80;99.90;;;;;;4924008;29;20072;-84
2022/03/20 01:50:07;;;;;;;6.43;4.45;;;3.80;99.90;;;;;;4900794;29;20040;-83
2022/03/20 01:52:33;;;;;;;7.55;4.55;;;3.80;99.90;;;;;;4876570;29;20048;-83
2022/03/20 01:54:59;;;;;;;6.30;4.63;;;3.80;99.90;;;;;;4887423;29;20053;-84
2022/03/20 01:57:26;;;;;;;7.03;4.32;;;3.80;99.90;;;;;;4871310;29;20061;-82
2022/03/20 01:59:52;;;;;;;8.18;4.70;;;3.80;99.90;;;;;;4888512;29;20056;-84
2022/03/20 02:02:22;;;;;;;6.88;4.40;;;3.80;99.90;;;;;;4902967;29;20491;-83
2022/03/20 02:04:48;;;;;;;8.15;4.85;;;4.30;99.90;;;;;;4875718;29;20052;-82
2022/03/20 02:07:14;;;;;;;8.13;4.25;;;3.80;99.90;;;;;;4870091;29;20063;-83
2022/03/20 02:09:41;;;;;;;8.35;5.20;;;3.80;99.90;;;;;;4886440;29;20122;-83
2022/03/20 02:12:07;;;;;;;7.60;4.50;;;3.70;99.90;;;;;;4916351;29;20057;-82
2022/03/20 02:14:34;;;;;;;6.03;4.32;;;3.70;99.90;;;;;;4920412;29;20055;-84
2022/03/20 02:17:01;;;;;;;7.95;5.47;;;3.70;99.90;;;;;;4900147;29;20063;-84
2022/03/20 02:19:27;;;;;;;6.30;4.13;;;4.60;99.90;;;;;;4877137;29;20044;-83
2022/03/20 02:21:54;;;;;;;6.72;4.55;;;3.70;99.90;;;;;;4900794;29;20071;-82
2022/03/20 02:24:44;;;;;;;7.47;4.85;;;4.50;99.90;;;;;;4886688;29;20103;-83
2022/03/20 02:27:24;;;;;;;8.57;4.57;;;3.60;99.90;;;;;;4899368;29;20044;-83
2022/03/20 02:29:54;;;;;;;8.50;5.13;;;3.60;99.90;;;;;;4885932;29;20048;-81
2022/03/20 02:32:28;;;;;;;6.93;5.15;;;3.60;99.90;;;;;;4909113;29;20168;-83
2022/03/20 02:35:01;;;;;;;7.68;4.80;;;4.60;99.90;;;;;;4894634;29;20049;-83
2022/03/20 02:37:28;;;;;;;9.85;5.10;;;3.50;99.90;;;;;;4918071;29;20048;-83
2022/03/20 02:40:01;;;;;;;9.13;5.38;;;3.50;99.90;;;;;;4908474;29;20560;-83
2022/03/20 02:42:27;;;;;;;9.65;4.97;;;3.60;99.90;;;;;;4888104;29;20139;-83
2022/03/20 02:44:54;;;;;;;7.65;4.82;;;3.70;99.90;;;;;;4917351;29;20119;-83
2022/03/20 02:47:25;;;;;;;8.48;5.45;;;3.50;99.90;;;;;;4916359;29;20045;-82
2022/03/20 02:50:04;;;;;;;8.27;5.13;;;3.50;99.90;;;;;;4885716;29;20048;-81
2022/03/20 02:52:58;;;;;;;7.55;4.70;;;3.50;99.90;;;;;;4902845;29;20053;-83
2022/03/20 02:55:44;;;;;;;8.52;4.68;;;3.50;99.90;;;;;;4881524;29;20104;-83
2022/03/20 02:58:11;;;;;;;;;;;3.50;99.90;;;;;;4890388;29;20044;-83
2022/03/20 03:00:39;;;;;;;;;;;3.40;99.90;;;;;;4904990;29;19957;-84
2022/03/20 03:03:11;;;;;;;8.25;5.05;;;3.40;99.90;;;;;;4908640;29;19970;-83
2022/03/20 03:05:37;;;;;;;8.65;4.95;;;4.30;99.90;;;;;;4888198;29;20206;-84
2022/03/20 03:10:57;;;;;;;9.80;5.25;;;3.30;99.90;;;;;;4902289;29;20055;-85
2022/03/20 03:13:25;;;;;;;9.13;5.72;;;3.30;99.90;;;;;;4900488;29;20505;-84
2022/03/20 03:15:53;;;;;;;8.77;5.40;;;3.30;99.90;;;;;;4901662;29;20169;-82
2022/03/20 03:18:20;;;;;;;11.48;6.07;;;4.10;99.90;;;;;;4890010;29;20048;-83
2022/03/20 03:20:47;;;;;;;11.07;5.53;;;3.30;99.90;;;;;;4884146;29;20057;-83
2022/03/20 03:23:14;;;;;;;9.50;5.22;;;3.20;99.90;;;;;;4884487;29;20280;-84
2022/03/20 03:25:40;;;;;;;10.05;5.63;;;3.30;99.90;;;;;;4899158;29;20053;-83
2022/03/20 03:28:07;;;;;;;9.73;6.00;;;3.20;99.90;;;;;;4867535;29;20055;-83
2022/03/20 03:30:35;;;;;;;8.68;5.28;;;3.20;99.90;;;;;;4900467;29;20044;-84
2022/03/20 03:33:00;;;;;;;12.38;6.28;;;3.20;99.90;;;;;;4901937;29;20494;-83
2022/03/20 03:35:42;;;;;;;8.90;5.65;;;3.20;99.90;;;;;;4884268;29;20049;-83
2022/03/20 03:38:11;;;;;;;9.52;5.75;;;3.40;99.90;;;;;;4902398;29;20603;-83
2022/03/20 03:40:37;;;;;;;10.30;5.60;;;3.10;99.90;;;;;;4895683;29;20514;-82
2022/03/20 03:43:04;;;;;;;10.57;5.32;;;3.30;99.90;;;;;;4903329;29;20616;-83
2022/03/20 03:45:29;;;;;;;9.10;6.15;;;3.60;99.90;;;;;;4905353;29;20052;-84
2022/03/20 03:47:56;;;;;;;11.57;6.38;;;3.50;99.90;;;;;;4903506;29;20048;-82
2022/03/20 03:50:22;;;;;;;10.13;5.90;;;3.10;99.90;;;;;;4905586;29;20052;-83
2022/03/20 03:52:48;;;;;;;9.05;6.78;;;3.30;99.90;;;;;;4903391;29;20509;-84
2022/03/20 03:55:15;;;;;;;9.95;6.18;;;3.00;99.90;;;;;;4889539;29;20725;-82
2022/03/20 03:57:49;;;;;;;10.82;6.22;;;3.20;99.90;;;;;;4903368;29;20052;-84
2022/03/20 04:00:17;;;;;;;8.85;6.15;;;4.30;99.90;;;;;;4902374;29;20048;-84
2022/03/20 04:02:43;;;;;;;10.50;6.53;;;3.00;99.90;;;;;;4890463;29;20044;-84
2022/03/20 04:05:09;;;;;;;12.57;6.68;;;4.20;99.90;;;;;;4904529;29;20093;-83
2022/03/20 04:07:37;;;;;;;11.23;6.38;;;3.00;99.90;;;;;;4902873;29;20059;-83
2022/03/20 04:10:05;;;;;;;11.77;7.07;;;2.90;99.90;;;;;;4875472;29;20037;-84
2022/03/20 04:12:31;;;;;;;12.27;6.55;;;2.90;99.90;;;;;;4910185;29;20446;-83
2022/03/20 04:15:02;;;;;;;10.32;6.47;;;2.90;99.90;;;;;;4894134;29;20056;-83
2022/03/20 04:17:29;;;;;;;11.77;6.70;;;2.90;99.90;;;;;;4888229;29;20056;-84
2022/03/20 04:19:55;;;;;;;10.68;6.70;;;;;;;;;;4886405;29;20485;-85
2022/03/20 04:22:21;;;;;;;13.23;7.95;;;2.80;99.90;;;;;;4916201;29;20135;-83
2022/03/20 04:24:47;;;;;;;14.82;7.38;;;3.00;99.90;;;;;;4908114;29;20135;-84
2022/03/20 04:27:13;;;;;;;9.93;6.72;;;2.80;99.90;;;;;;4885981;29;20064;-84
2022/03/20 04:29:39;;;;;;;10.23;6.93;;;3.00;99.90;;;;;;4885910;29;20100;-83
2022/03/20 04:32:06;;;;;;;11.07;7.15;;;2.80;99.90;;;;;;4888281;29;20044;-83
2022/03/20 04:34:31;;;;;;;10.38;6.97;;;2.70;99.90;;;;;;4919106;29;20048;-84
2022/03/20 04:36:57;;;;;;;10.10;7.43;;;2.70;99.90;;;;;;4895162;29;20055;-83
2022/03/20 04:39:24;;;;;;;11.68;7.93;;;2.70;99.90;;;;;;4917209;29;20048;-83
2022/03/20 04:41:50;;;;;;;12.10;7.60;;;2.70;99.90;;;;;;4887827;29;20064;-83
2022/03/20 04:44:17;;;;;;;12.65;7.57;;;2.70;99.90;;;;;;4902986;29;20072;-83
2022/03/20 04:46:43;;;;;;;12.60;8.13;;;2.70;99.90;;;;;;4902389;29;20446;-81
2022/03/20 05:00:13;;;;;;;11.02;7.75;;;3.30;99.90;;;;;;4885494;29;20564;-84
2022/03/20 05:02:39;;;;;;;13.10;7.88;;;2.60;99.90;;;;;;4886774;29;20052;-83
2022/03/20 05:05:05;;;;;;;13.18;8.18;;;3.50;99.90;;;;;;4886267;29;20159;-82
2022/03/20 05:07:33;;;;;;;12.90;8.02;;;2.50;99.90;;;;;;4885311;29;20542;-83
2022/03/20 05:15:31;;;;;;;12.20;8.55;;;3.50;99.90;;;;;;4889809;29;20071;-83
2022/03/20 05:17:57;;;;;;;14.70;8.85;;;3.30;99.90;;;;;;4870222;29;20052;-83
2022/03/20 05:20:23;;;;;;;11.25;8.50;;;2.40;99.90;;;;;;4901813;29;20036;-84
2022/03/20 05:22:50;;;;;;;13.07;8.35;;;2.40;99.90;;;;;;4877990;29;20135;-84
2022/03/20 05:25:17;;;;;;;12.52;8.55;;;2.40;99.90;;;;;;4909820;29;20048;-83
2022/03/20 05:27:43;;;;;;;12.20;8.23;;;2.40;99.90;;;;;;4889025;29;20056;-83
2022/03/20 05:30:10;;;;;;;13.65;8.75;;;2.40;99.90;;;;;;4907855;29;20041;-82
2022/03/20 05:32:37;;;;;;;14.50;8.60;;;2.40;99.90;;;;;;4902439;29;20112;-84
2022/03/20 05:35:05;;;;;;;13.98;8.55;;;2.40;99.90;;;;;;4902443;29;20048;-82
2022/03/20 05:37:32;;;;;;;13.27;9.30;;;2.40;99.90;;;;;;4910044;29;20131;-84
2022/03/20 05:39:58;;;;;;;11.25;8.32;;;2.40;99.90;;;;;;4926857;29;20070;-83
2022/03/20 05:42:24;;;;;;;15.38;9.80;;;2.40;99.90;;;;;;4906280;29;20303;-84
2022/03/20 05:44:51;;;;;;;13.43;9.85;;;2.40;99.90;;;;;;4890788;29;20494;-84
2022/03/20 05:47:17;;;;;;;15.73;9.02;;;2.50;99.90;;;;;;4901067;29;20047;-83
2022/03/20 05:49:43;;;;;;;12.35;8.75;;;2.40;99.90;;;;;;4871828;29;20624;-84
2022/03/20 05:52:09;;;;;;;12.45;9.23;;;4.00;99.90;;;;;;4887621;29;20126;-83
2022/03/20 05:54:36;;;;;;;13.75;9.02;;;2.50;99.90;;;;;;4894637;29;20051;-83
2022/03/20 05:59:46;;;;;;;11.68;8.05;;;2.30;99.90;;;;;;4919198;29;20557;-83
2022/03/20 06:02:12;;;;;;;13.05;8.60;;;2.30;99.90;;;;;;4871157;29;20099;-83
2022/03/20 06:04:38;;;;;;;14.90;9.75;;;3.50;99.90;;;;;;4903521;29;20059;-84
2022/03/20 06:07:05;;;;;;;18.88;9.15;;;2.80;99.90;;;;;;4892937;29;20092;-84
2022/03/20 06:09:31;;;;;;;13.38;9.40;;;2.30;99.90;;;;;;4900845;29;20104;-82
2022/03/20 06:11:57;;;;;;;13.32;9.25;;;2.30;99.90;;;;;;4901719;29;20044;-83
2022/03/20 06:14:23;;;;;;;14.60;9.65;;;2.30;99.90;;;;;;4923583;29;20605;-84
2022/03/20 06:16:49;;;;;;;14.32;10.40;;;2.30;99.90;;;;;;4885580;29;20090;-82
2022/03/20 06:19:16;;;;;;;13.63;9.00;;;2.30;99.90;;;;;;4900826;29;20513;-85
2022/03/20 06:21:43;;;;;;;15.10;9.35;;;2.30;99.90;;;;;;4903906;29;20044;-84
2022/03/20 06:24:09;;;;;;;13.52;9.10;;;2.40;99.90;;;;;;4902206;29;20494;-82
2022/03/20 06:26:35;;;;;;;16.05;9.45;;;3.50;99.90;;;;;;4886064;29;20052;-84
2022/03/20 06:29:02;;;;;;;14.00;9.48;;;3.70;99.90;;;;;;4870602;29;20136;-84
2022/03/20 06:31:28;;;;;;;14.60;10.23;;;2.70;99.90;;;;;;4900818;29;20052;-83
2022/03/20 06:33:54;;;;;;;17.20;10.13;;;2.40;99.90;;;;;;4887065;29;20112;-85
2022/03/20 06:36:20;;;;;;;13.85;8.85;;;2.40;99.90;;;;;;4901987;29;20059;-83
2022/03/20 06:38:46;;;;;;;15.10;9.55;;;2.50;99.90;;;;;;4887212;29;20052;-84
2022/03/20 06:41:12;;;;;;;15.50;9.82;;;2.50;99.90;;;;;;4901833;29;20068;-81
2022/03/20 06:43:38;;;;;;;15.20;9.38;;;3.50;99.90;;;;;;4902254;29;20053;-84
2022/03/20 06:46:07;;;;;;;15.13;10.00;;;3.50;99.90;;;;;;4872262;29;20521;-83
2022/03/20 06:48:34;;;;;;;13.80;9.98;;;3.00;99.90;;;;;;4893403;29;20056;-86
2022/03/20 06:51:00;;;;;;;13.95;10.18;;;2.60;99.90;;;;;;4887169;29;20055;-83
2022/03/20 06:53:26;;;;;;;14.65;10.23;;;2.60;99.90;;;;;;4901179;29;20063;-82
2022/03/20 06:55:53;;;;;;;13.43;9.82;;;3.70;99.90;;;;;;4869610;29;20871;-83
2022/03/20 06:58:22;;;;;;;13.68;9.38;;;3.80;99.90;;;;;;4870481;29;20131;-84
2022/03/20 07:00:49;;;;;;;13.35;9.75;;;2.70;99.90;;;;;;4903425;29;20080;-84
2022/03/20 07:03:15;;;;;;;17.73;10.52;;;2.80;99.90;;;;;;4901655;29;20052;-84
2022/03/20 07:05:42;;;;;;;16.83;10.82;;;2.90;99.90;;;;;;4887445;29;20486;-84
2022/03/20 07:08:08;;;;;;;13.80;9.70;;;4.20;99.90;;;;;;4901912;29;20052;-84
2022/03/20 07:10:34;;;;;;;14.90;10.23;;;2.90;99.90;;;;;;4903297;29;20063;-84
2022/03/20 07:15:48;;;;;;;15.90;10.20;;;3.00;99.90;;;;;;4893949;29;20052;-85
2022/03/20 07:18:16;;;;;;;13.98;9.68;;;3.80;99.90;;;;;;4905101;29;20095;-83
2022/03/20 07:20:44;;;;;;;17.05;10.77;;;3.10;99.90;;;;;;4896077;29;20188;-87
2022/03/20 07:23:11;;;;;;;13.85;10.07;;;3.30;99.90;;;;;;4905130;29;20494;-84
2022/03/20 07:31:11;;;;;;;13.98;10.18;;;4.40;99.90;;;;;;4904376;29;20056;-83
2022/03/20 07:33:38;;;;;;;16.40;10.82;;;3.50;99.90;;;;;;4903048;29;20056;-84
2022/03/20 07:36:05;;;;;;;14.18;10.07;;;3.50;99.90;;;;;;4905510;29;20418;-84
2022/03/20 07:38:30;;;;;;;16.83;10.27;;;3.60;99.90;;;;;;4888063;29;20048;-83
2022/03/20 07:40:56;;;;;;;15.00;9.90;;;3.70;99.90;;;;;;4888204;29;20071;-84
2022/03/20 07:43:22;;;;;;;15.95;10.15;;;3.80;99.90;;;;;;4874383;29;20135;-84
2022/03/20 07:45:48;;;;;;;14.30;10.30;;;4.30;99.90;;;;;;4889283;29;20052;-83
2022/03/20 07:48:13;;;;;;;16.55;10.55;;;4.00;99.90;;;;;;4895479;29;20056;-84
2022/03/20 07:50:40;;;;;;;15.43;10.23;;;4.10;99.90;;;;;;4887735;29;20049;-83
2022/03/20 07:53:06;;;;;;;14.30;9.88;;;4.80;99.90;;;;;;4927739;29;20048;-84
2022/03/20 07:55:32;;;;;;;16.30;10.38;;;4.30;99.90;;;;;;4889308;29;20134;-84
2022/03/20 07:57:58;;;;;;;14.30;10.35;;;4.40;99.90;;;;;;4889353;29;20854;-83
2022/03/20 08:00:24;;;;;;;13.57;10.35;;;4.50;99.90;;;;;;4880337;29;20052;-84
2022/03/20 08:02:51;;;;;;;16.23;10.23;;;4.60;99.90;;;;;;4904668;29;20057;-84
2022/03/20 08:05:18;;;;;;;16.35;10.05;;;4.80;99.90;;;;;;4889744;29;20056;-82
2022/03/20 08:07:44;;;;;;;14.80;10.13;;;5.20;99.90;;;;;;4905841;29;20067;-85
2022/03/20 08:10:12;;;;;;;13.90;10.27;;;5.10;99.90;;;;;;4905196;29;20128;-83
2022/03/20 08:12:39;;;;;;;13.48;10.18;;;5.30;99.90;;;;;;4889110;29;20583;-82
2022/03/20 08:15:05;;;;;;;14.82;10.50;;;5.50;99.90;;;;;;4904520;29;20455;-84
2022/03/20 08:17:41;;;;;;;15.98;10.73;;;5.60;99.90;;;;;;4903758;29;20478;-83
2022/03/20 08:20:07;;;;;;;15.80;10.45;;;6.20;99.90;;;;;;4904691;29;20051;-84
2022/03/20 08:22:33;;;;;;;13.43;9.82;;;5.90;99.90;;;;;;4905871;29;20088;-85
2022/03/20 08:24:59;;;;;;;16.95;11.25;;;6.40;99.90;;;;;;4874889;29;20055;-84
2022/03/20 08:27:25;;;;;;;15.18;11.20;;;6.20;99.90;;;;;;4889444;29;20112;-83
2022/03/20 08:29:51;;;;;;;15.60;10.70;;;6.30;99.90;;;;;;4888423;29;20439;-85
2022/03/20 08:32:19;;;;;;;14.30;10.95;;;6.50;99.90;;;;;;4889358;29;20139;-84
2022/03/20 08:34:45;;;;;;;16.75;11.38;;;6.70;99.90;;;;;;4905383;29;20051;-85
2022/03/20 08:37:11;;;;;;;14.80;11.52;;;6.80;99.90;;;;;;4895998;29;20147;-84
2022/03/20 08:39:36;;;;;;;14.60;11.05;;;7.00;99.90;;;;;;4891013;29;20106;-84
2022/03/20 08:42:02;;;;;;;16.05;10.70;;;7.20;99.90;;;;;;4904382;29;20052;-84
2022/03/20 08:44:28;;;;;;;15.10;10.50;;;7.30;99.90;;;;;;4896628;29;20052;-85
2022/03/20 08:46:54;;;;;;;16.05;11.10;;;7.80;99.90;;;;;;4888910;29;20082;-84
2022/03/20 08:49:19;;;;;;;14.43;10.32;;;7.70;99.90;;;;;;4888391;29;20143;-83
2022/03/20 08:51:45;;;;;;;14.45;10.70;;;7.80;99.90;;;;;;4904574;29;20520;-84
2022/03/20 08:54:11;;;;;;;13.93;10.93;;;7.90;99.90;;;;;;4906835;29;20087;-86
2022/03/20 08:56:38;;;;;;;13.75;10.75;;;8.10;99.90;;;;;;4887971;29;20052;-82
2022/03/20 08:59:06;;;;;;;14.63;11.20;;;8.30;99.90;;;;;;4888214;29;20639;-84
2022/03/20 09:01:32;;;;;;;16.25;10.73;;;8.50;99.90;;;;;;4903082;29;20131;-84
2022/03/20 09:03:58;;;;;;;14.10;10.70;;;8.60;99.90;;;;;;4888533;29;20044;-85
2022/03/20 09:06:24;;;;;;;15.40;11.32;;;8.70;99.90;;;;;;4894405;29;20515;-84
2022/03/20 09:08:51;;;;;;;14.57;10.65;;;8.80;99.90;;;;;;4903488;29;20131;-85
2022/03/20 09:11:21;;;;;;;14.50;11.30;;;9.00;99.90;;;;;;4904188;29;20075;-84
2022/03/20 09:13:47;;;;;;;14.32;11.10;;;9.20;99.90;;;;;;4894794;29;20082;-84
2022/03/20 09:19:03;;;;;;;14.13;11.25;;;9.50;99.90;;;;;;4903695;29;20056;-85
2022/03/20 09:21:32;;;;;;;14.90;11.68;;;9.80;99.90;;;;;;4903165;29;20164;-85
2022/03/20 09:23:58;;;;;;;15.30;11.40;;;10.00;99.90;;;;;;4895106;29;20063;-84
2022/03/20 09:26:24;;;;;;;16.77;10.93;;;10.20;99.90;;;;;;4918378;29;20092;-82
2022/03/20 09:28:50;;;;;;;14.80;11.43;;;10.30;99.90;;;;;;4878869;29;20119;-85
2022/03/20 09:31:16;;;;;;;13.10;10.77;;;10.50;99.90;;;;;;4872112;29;20048;-85
2022/03/20 09:33:44;;;;;;;13.85;10.43;;;10.80;99.90;;;;;;4902348;29;20048;-85
2022/03/20 09:36:10;;;;;;;16.60;12.10;;;10.90;99.90;;;;;;4902765;29;20040;-85
2022/03/20 09:38:37;;;;;;;15.88;11.90;;;11.00;99.90;;;;;;4902890;29;20063;-84
2022/03/20 09:41:07;;;;;;;15.80;11.77;;;11.20;99.90;;;;;;4902565;29;20403;-84
2022/03/20 09:43:41;;;;;;;16.13;11.45;;;11.40;99.90;;;;;;4903769;29;20064;-85
2022/03/20 09:46:06;;;;;;;14.85;11.48;;;11.40;99.90;;;;;;4888104;29;20059;-85
2022/03/20 09:48:33;;;;;;;13.25;11.10;;;11.40;99.90;;;;;;4903941;29;20052;-85
2022/03/20 09:51:00;;;;;;;14.70;11.55;;;11.50;99.90;;;;;;4903893;29;20047;-85
2022/03/20 09:53:27;;;;;;;13.00;11.48;;;11.70;99.90;;;;;;4903963;29;20048;-85
2022/03/20 09:55:56;;;;;;;14.55;11.70;;;11.90;99.90;;;;;;4903933;29;20479;-85
2022/03/20 09:58:27;;;;;;;15.30;12.45;;;12.20;99.90;;;;;;4903997;29;20051;-85
2022/03/20 10:00:54;;;;;;;15.00;12.30;;;12.30;97.20;;;;;;4895527;29;20084;-86
2022/03/20 10:03:22;;;;;;;14.25;11.57;;;12.30;98.10;;;;;;4871257;29;20058;-86
2022/03/20 10:06:15;;;;;;;16.00;12.38;;;12.30;97.60;;;;;;4894370;29;20044;-86
2022/03/20 10:09:02;;;;;;;14.98;11.57;;;12.40;96.20;;;;;;4892937;29;20109;-85
2022/03/20 10:11:28;;;;;;;16.40;12.63;;;12.50;94.90;;;;;;4894930;29;20075;-85
2022/03/20 10:14:14;;;;;;;17.63;12.02;;;12.60;97.30;;;;;;4888024;29;20052;-86
2022/03/20 10:17:01;;;;;;;16.10;12.65;;;12.60;92.50;;;;;;4902598;29;20060;-85
2022/03/20 10:19:28;;;;;;;14.70;11.85;;;12.60;95.90;;;;;;4895130;29;20056;-86
2022/03/20 10:21:59;;;;;;;15.10;12.38;;;12.80;96.00;;;;;;4904336;29;20144;-86
2022/03/20 10:24:29;;;;;;;15.65;11.70;;;12.70;94.60;;;;;;4888410;29;20131;-86
2022/03/20 10:27:00;;;;;;;14.93;11.70;;;12.80;94.70;;;;;;4902680;29;20067;-86
2022/03/20 10:29:32;;;;;;;13.48;11.45;;;13.00;93.20;;;;;;4887456;29;20127;-87
2022/03/20 10:32:06;;;;;;;14.55;12.07;;;13.10;94.10;;;;;;4910847;29;20062;-87
2022/03/20 10:34:50;;;;;;;14.82;12.07;;;12.70;92.70;;;;;;4904464;29;20056;-86
2022/03/20 10:37:18;;;;;;;14.45;12.40;;;13.30;92.10;;;;;;4895982;29;20131;-86
2022/03/20 10:39:44;;;;;;;14.68;12.40;;;13.50;93.10;;;;;;4872828;29;20048;-86
2022/03/20 10:42:12;;;;;;;14.38;12.40;;;13.60;93.10;;;;;;4908959;29;20071;-87
2022/03/20 10:44:39;;;;;;;17.20;12.68;;;13.70;92.20;;;;;;4894044;29;20052;-85
2022/03/20 10:47:12;;;;;;;16.15;12.13;;;13.80;90.90;;;;;;4903163;29;20052;-85
2022/03/20 10:49:39;;;;;;;17.42;12.75;;;13.90;89.80;;;;;;4910708;29;20517;-87
2022/03/20 10:52:07;;;;;;;17.98;12.52;;;13.90;88.60;;;;;;4902730;29;20086;-85
2022/03/20 10:54:44;;;;;;;16.23;12.45;;;14.10;87.10;;;;;;4910079;29;20048;-86
2022/03/20 10:57:13;;;;;;;14.52;11.98;;;14.30;85.30;;;;;;4893817;29;20063;-86
2022/03/20 10:59:41;;;;;;;16.45;13.02;;;14.50;88.00;;;;;;4902040;29;20055;-85
2022/03/20 11:02:23;;;;;;;17.45;12.60;;;14.70;86.80;;;;;;4910216;29;20131;-85
2022/03/20 11:04:50;;;;;;;15.75;12.93;;;14.90;83.20;;;;;;4901713;29;20048;-86
2022/03/20 11:07:23;;;;;;;17.48;12.35;;;15.00;82.80;;;;;;4878473;29;20048;-85
2022/03/20 11:09:54;;;;;;;16.05;12.25;;;15.20;80.60;;;;;;4879252;29;20043;-87
2022/03/20 11:12:34;;;;;;;15.63;12.68;;;15.30;76.80;;;;;;4903036;29;20052;-86
2022/03/20 11:15:06;;;;;;;14.57;12.70;;;15.50;78.00;;;;;;4909633;29;20052;-87
2022/03/20 11:17:46;;;;;;;15.18;13.07;;;15.80;77.90;;;;;;4902495;29;20071;-86
2022/03/20 11:20:14;;;;;;;16.67;13.15;;;16.00;75.30;;;;;;4886913;29;20059;-87
2022/03/20 11:22:50;;;;;;;15.40;12.88;;;16.10;76.90;;;;;;4902835;29;20044;-86
2022/03/20 11:25:21;;;;;;;16.00;12.70;;;16.20;73.80;;;;;;4893749;29;20525;-85
2022/03/20 11:27:55;;;;;;;14.85;12.73;;;16.20;74.20;;;;;;4901459;29;20048;-87
2022/03/20 11:30:27;;;;;;;13.95;12.40;;;16.30;71.10;;;;;;4886946;29;20052;-86
2022/03/20 11:32:56;;;;;;;14.25;12.48;;;16.30;70.80;;;;;;4901762;29;20052;-85
2022/03/20 11:35:29;;;;;;;17.35;12.80;;;16.40;71.60;;;;;;4901888;29;20055;-86
2022/03/20 11:37:58;;;;;;;15.85;12.80;;;16.60;71.50;;;;;;4902967;29;20120;-86
2022/03/20 11:40:26;;;;;;;16.92;13.32;;;16.80;71.40;;;;;;4894349;29;20059;-86
2022/03/20 11:43:11;;;;;;;15.73;12.27;;;16.90;70.50;;;;;;4903859;29;20069;-87
2022/03/20 11:45:40;;;;;;;17.02;12.75;;;17.10;67.20;;;;;;4900983;29;20063;-86
2022/03/20 11:48:15;;;;;;;15.95;12.88;;;17.20;70.00;;;;;;4922562;29;20048;-86
2022/03/20 11:50:47;;;;;;;16.83;13.30;;;17.30;65.70;;;;;;4895437;29;20044;-86
2022/03/20 11:53:26;;;;;;;15.38;12.27;;;17.40;67.10;;;;;;4903067;29;20056;-86
2022/03/20 11:55:52;;;;;;;14.57;12.98;;;17.80;67.80;;;;;;4893430;29;20062;-85
2022/03/20 11:58:20;;;;;;;14.15;12.55;;;17.50;66.60;;;;;;4888970;29;20074;-87
2022/03/20 12:01:07;;;;;;;17.42;13.18;;;17.50;65.10;;;;;;4906199;29;20060;-86
2022/03/20 12:04:04;;;;;;;16.17;13.02;;;17.60;63.60;;;;;;4897244;29;20051;-87
2022/03/20 12:07:06;;;;;;;14.70;12.68;;;17.50;60.70;;;;;;4920199;29;20559;-86
2022/03/20 12:09:32;;;;;;;16.50;13.65;;;17.50;60.50;;;;;;4888658;29;20123;-85
2022/03/20 12:12:28;;;;;;;17.02;14.07;;;17.20;63.40;;;;;;4889247;29;20053;-86
2022/03/20 12:14:56;;;;;;;15.50;13.15;;;17.10;61.90;;;;;;4889226;29;20063;-86
2022/03/20 12:17:22;;;;;;;16.50;13.52;;;16.80;63.20;;;;;;4874691;29;20562;-85
2022/03/20 12:19:55;;;;;;;18.25;14.40;;;16.90;63.50;;;;;;4903417;29;20052;-88
2022/03/20 12:22:21;;;;;;;15.93;13.30;;;17.00;61.50;;;;;;4894411;29;20139;-85
2022/03/20 12:24:52;;;;;;;16.55;13.73;;;17.20;63.20;;;;;;4890032;29;20139;-84
2022/03/20 12:27:24;;;;;;;16.38;13.52;;;17.00;60.10;;;;;;4889307;29;20057;-85
2022/03/20 12:29:51;;;;;;;14.27;12.77;;;16.80;59.80;;;;;;4905311;29;20093;-87
2022/03/20 12:32:19;;;;;;;16.60;13.15;;;16.80;61.20;;;;;;4902235;29;20088;-85
2022/03/20 12:34:59;;;;;;;15.70;12.80;;;16.80;61.50;;;;;;4872488;29;20052;-86
2022/03/20 12:37:32;;;;;;;16.13;13.07;;;16.70;59.30;;;;;;4910586;29;20040;-85
2022/03/20 12:40:17;;;;;;;17.92;13.90;;;16.40;61.50;;;;;;4888798;29;20168;-83
2022/03/20 12:43:05;;;;;;;17.38;13.95;;;16.20;60.10;;;;;;4904980;29;20125;-86
2022/03/20 12:45:32;;;;;;;17.00;13.60;;;15.50;57.60;;;;;;4883769;29;20167;-84
2022/03/20 12:48:26;;;;;;;16.42;14.30;;;15.20;61.60;;;;;;4926874;29;20045;-86
2022/03/20 12:51:10;;;;;;;17.65;14.20;;;15.10;61.90;;;;;;4879406;29;20132;-85
2022/03/20 12:53:41;;;;;;;18.20;14.32;;;14.70;62.40;;;;;;4887583;29;20048;-84
2022/03/20 12:56:32;;;;;;;18.52;14.43;;;14.70;63.60;;;;;;4910789;29;20071;-85
2022/03/20 12:58:56;;;;;;;17.42;14.40;;;14.40;62.80;;;;;;4918964;29;20328;-84
2022/03/20 13:01:21;;;;;;;16.10;13.93;;;14.20;63.90;;;;;;4903343;29;20139;-83
2022/03/20 13:03:48;;;;;;;18.42;14.55;;;14.00;63.40;;;;;;4870480;29;20056;-84
2022/03/20 13:06:15;;;;;;;17.33;14.73;;;14.00;64.20;;;;;;4862647;29;20396;-86
2022/03/20 13:08:57;;;;;;;20.08;14.88;;;14.10;64.10;;;;;;4892003;29;20084;-86
2022/03/20 13:14:14;;;;;;;16.20;13.85;;;14.50;63.60;;;;;;4902204;29;20144;-86
2022/03/20 13:16:50;;;;;;;17.38;14.27;;;14.60;62.70;;;;;;4886769;29;20060;-86
2022/03/20 13:19:30;;;;;;;18.13;14.63;;;14.60;62.30;;;;;;4902857;29;20075;-87
2022/03/20 13:21:58;;;;;;;20.77;14.30;;;14.60;62.70;;;;;;4907082;29;20741;-87
2022/03/20 13:24:43;;;;;;;18.90;14.70;;;14.30;62.30;;;;;;4899642;29;20406;-89
2022/03/20 13:27:10;;;;;;;19.17;14.88;;;14.00;61.30;;;;;;4878225;29;20059;-85